sensor_id;sensor_type;location;lat;lon;timestamp;temperature;humidity
74384;DHT22;62824;52.994;-3.936;2024-03-17T00:01:08;10.70;99.90
74384;DHT22;62824;52.994;-3.936;2024-03-17T00:03:34;10.80;99.90
74384;DHT22;62824;52.994;-3.936;2024-03-17T00:06:01;10.70;99.90
74384;DHT22;62824;52.994;-3.936;2024-03-17T00:08:27;10.80;99.90
74384;DHT22;62824;52.994;-3.936;2024-03-17T00:10:53;10.80;99.90
74384;DHT22;62824;52.994;-3.936;2024-03-17T00:13:25;10.80;99.90
74384;DHT22;62824;52.994;-3.936;2024-03-17T00:15:51;10.80;99.90
74384;DHT22;62824;52.994;-3.936;2024-03-17T00:18:17;10.80;99.90
74384;DHT22;62824;52.994;-3.936;2024-03-17T00:20:43;10.80;99.90
74384;DHT22;62824;52.994;-3.936;2024-03-17T00:23:10;10.80;99.90
74384;DHT22;62824;52.994;-3.936;2024-03-17T00:25:40;10.80;99.90
74384;DHT22;62824;52.994;-3.936;2024-03-17T00:28:06;10.80;99.90
74384;DHT22;62824;52.994;-3.936;2024-03-17T00:30:32;10.80;99.90
74384;DHT22;62824;52.994;-3.936;2024-03-17T00:32:59;10.80;99.90
74384;DHT22;62824;52.994;-3.936;2024-03-17T00:35:25;10.80;99.90
74384;DHT22;62824;52.994;-3.936;2024-03-17T00:37:51;10.80;99.90
74384;DHT22;62824;52.994;-3.936;2024-03-17T00:40:18;10.70;99.90
74384;DHT22;62824;52.994;-3.936;2024-03-17T00:42:44;10.70;99.90
74384;DHT22;62824;52.994;-3.936;2024-03-17T00:45:12;10.70;99.90
74384;DHT22;62824;52.994;-3.936;2024-03-17T00:47:39;10.80;99.90
74384;DHT22;62824;52.994;-3.936;2024-03-17T00:50:05;10.70;99.90
74384;DHT22;62824;52.994;-3.936;2024-03-17T00:52:34;10.80;99.90
74384;DHT22;62824;52.994;-3.936;2024-03-17T00:55:00;10.80;99.90
74384;DHT22;62824;52.994;-3.936;2024-03-17T00:57:26;10.80;99.90
74384;DHT22;62824;52.994;-3.936;2024-03-17T00:59:52;10.80;99.90
74384;DHT22;62824;52.994;-3.936;2024-03-17T01:02:18;10.80;99.90
74384;DHT22;62824;52.994;-3.936;2024-03-17T01:04:44;10.80;99.90
74384;DHT22;62824;52.994;-3.936;2024-03-17T01:07:11;10.80;99.90
74384;DHT22;62824;52.994;-3.936;2024-03-17T01:09:37;10.80;99.90
74384;DHT22;62824;52.994;-3.936;2024-03-17T01:12:03;10.80;99.90
74384;DHT22;62824;52.994;-3.936;2024-03-17T01:14:29;10.80;99.90
74384;DHT22;62824;52.994;-3.936;2024-03-17T01:16:56;10.80;99.90
74384;DHT22;62824;52.994;-3.936;2024-03-17T01:19:23;10.80;99.90
74384;DHT22;62824;52.994;-3.936;2024-03-17T01:21:49;10.80;99.90
74384;DHT22;62824;52.994;-3.936;2024-03-17T01:24:15;10.80;99.90
74384;DHT22;62824;52.994;-3.936;2024-03-17T01:26:42;10.80;99.90
74384;DHT22;62824;52.994;-3.936;2024-03-17T01:29:08;10.80;99.90
74384;DHT22;62824;52.994;-3.936;2024-03-17T01:31:34;10.80;99.90
74384;DHT22;62824;52.994;-3.936;2024-03-17T01:34:00;10.80;99.90
74384;DHT22;62824;52.994;-3.936;2024-03-17T01:36:26;10.80;99.90
74384;DHT22;62824;52.994;-3.936;2024-03-17T01:38:52;10.80;99.90
74384;DHT22;62824;52.994;-3.936;2024-03-17T01:41:18;10.80;99.90
74384;DHT22;62824;52.994;-3.936;2024-03-17T01:43:44;10.80;99.90
74384;DHT22;62824;52.994;-3.936;2024-03-17T01:46:13;10.80;99.90
74384;DHT22;62824;52.994;-3.936;2024-03-17T01:48:39;10.80;99.90
74384;DHT22;62824;52.994;-3.936;2024-03-17T01:51:05;10.80;99.90
74384;DHT22;62824;52.994;-3.936;2024-03-17T01:53:33;10.80;99.90
74384;DHT22;62824;52.994;-3.936;2024-03-17T01:55:59;10.80;99.90
74384;DHT22;62824;52.994;-3.936;2024-03-17T01:58:25;10.80;99.90
74384;DHT22;62824;52.994;-3.936;2024-03-17T02:00:53;10.70;99.90
74384;DHT22;62824;52.994;-3.936;2024-03-17T02:03:18;10.80;99.90
74384;DHT22;62824;52.994;-3.936;2024-03-17T02:05:48;10.70;99.90
74384;DHT22;62824;52.994;-3.936;2024-03-17T02:08:14;10.70;99.90
74384;DHT22;62824;52.994;-3.936;2024-03-17T02:10:39;10.80;99.90
74384;DHT22;62824;52.994;-3.936;2024-03-17T02:13:06;10.70;99.90
74384;DHT22;62824;52.994;-3.936;2024-03-17T02:15:34;10.70;99.90
74384;DHT22;62824;52.994;-3.936;2024-03-17T02:18:00;10.70;99.90
74384;DHT22;62824;52.994;-3.936;2024-03-17T02:20:26;10.70;99.90
74384;DHT22;62824;52.994;-3.936;2024-03-17T02:23:11;10.70;99.90
74384;DHT22;62824;52.994;-3.936;2024-03-17T02:25:37;10.70;99.90
74384;DHT22;62824;52.994;-3.936;2024-03-17T02:28:03;10.70;99.90
74384;DHT22;62824;52.994;-3.936;2024-03-17T02:30:30;10.70;99.90
74384;DHT22;62824;52.994;-3.936;2024-03-17T02:32:56;10.70;99.90
74384;DHT22;62824;52.994;-3.936;2024-03-17T02:35:23;10.70;99.90
74384;DHT22;62824;52.994;-3.936;2024-03-17T02:37:49;10.70;99.90
74384;DHT22;62824;52.994;-3.936;2024-03-17T02:40:15;10.70;99.90
74384;DHT22;62824;52.994;-3.936;2024-03-17T02:42:42;10.70;99.90
74384;DHT22;62824;52.994;-3.936;2024-03-17T02:45:17;10.70;99.90
74384;DHT22;62824;52.994;-3.936;2024-03-17T02:47:43;10.70;99.90
74384;DHT22;62824;52.994;-3.936;2024-03-17T02:50:09;10.70;99.90
74384;DHT22;62824;52.994;-3.936;2024-03-17T02:52:35;10.70;99.90
74384;DHT22;62824;52.994;-3.936;2024-03-17T02:55:01;10.70;99.90
74384;DHT22;62824;52.994;-3.936;2024-03-17T02:57:27;10.70;99.90
74384;DHT22;62824;52.994;-3.936;2024-03-17T02:59:56;10.70;99.90
74384;DHT22;62824;52.994;-3.936;2024-03-17T03:02:22;10.70;99.90
74384;DHT22;62824;52.994;-3.936;2024-03-17T03:04:48;10.70;99.90
74384;DHT22;62824;52.994;-3.936;2024-03-17T03:07:14;10.60;99.90
74384;DHT22;62824;52.994;-3.936;2024-03-17T03:09:40;10.60;99.90
74384;DHT22;62824;52.994;-3.936;2024-03-17T03:12:06;10.70;99.90
74384;DHT22;62824;52.994;-3.936;2024-03-17T03:14:35;10.60;99.90
74384;DHT22;62824;52.994;-3.936;2024-03-17T03:17:02;10.70;99.90
74384;DHT22;62824;52.994;-3.936;2024-03-17T03:19:28;10.70;99.90
74384;DHT22;62824;52.994;-3.936;2024-03-17T03:21:54;10.60;99.90
74384;DHT22;62824;52.994;-3.936;2024-03-17T03:24:19;10.70;99.90
74384;DHT22;62824;52.994;-3.936;2024-03-17T03:26:45;10.60;99.90
74384;DHT22;62824;52.994;-3.936;2024-03-17T03:29:11;10.60;99.90
74384;DHT22;62824;52.994;-3.936;2024-03-17T03:31:40;10.70;99.90
74384;DHT22;62824;52.994;-3.936;2024-03-17T03:34:06;10.70;99.90
74384;DHT22;62824;52.994;-3.936;2024-03-17T03:36:35;10.70;99.90
74384;DHT22;62824;52.994;-3.936;2024-03-17T03:39:02;10.70;99.90
74384;DHT22;62824;52.994;-3.936;2024-03-17T03:41:30;10.60;99.90
74384;DHT22;62824;52.994;-3.936;2024-03-17T03:43:57;10.60;99.90
74384;DHT22;62824;52.994;-3.936;2024-03-17T03:46:23;10.60;99.90
74384;DHT22;62824;52.994;-3.936;2024-03-17T03:48:48;10.70;99.90
74384;DHT22;62824;52.994;-3.936;2024-03-17T03:51:14;10.60;99.90
74384;DHT22;62824;52.994;-3.936;2024-03-17T03:53:40;10.60;99.90
74384;DHT22;62824;52.994;-3.936;2024-03-17T03:56:08;10.60;99.90
74384;DHT22;62824;52.994;-3.936;2024-03-17T03:58:36;10.60;99.90
74384;DHT22;62824;52.994;-3.936;2024-03-17T04:01:07;10.60;99.90
74384;DHT22;62824;52.994;-3.936;2024-03-17T04:03:34;10.60;99.90
74384;DHT22;62824;52.994;-3.936;2024-03-17T04:06:10;10.60;99.90
74384;DHT22;62824;52.994;-3.936;2024-03-17T04:08:39;10.60;99.90
74384;DHT22;62824;52.994;-3.936;2024-03-17T04:11:08;10.60;99.90
74384;DHT22;62824;52.994;-3.936;2024-03-17T04:13:34;10.60;99.90
74384;DHT22;62824;52.994;-3.936;2024-03-17T04:16:04;10.50;99.90
74384;DHT22;62824;52.994;-3.936;2024-03-17T04:18:31;10.50;99.90
74384;DHT22;62824;52.994;-3.936;2024-03-17T04:21:02;10.60;99.90
74384;DHT22;62824;52.994;-3.936;2024-03-17T04:23:29;10.60;99.90
74384;DHT22;62824;52.994;-3.936;2024-03-17T04:25:57;10.60;99.90
74384;DHT22;62824;52.994;-3.936;2024-03-17T04:28:23;10.60;99.90
74384;DHT22;62824;52.994;-3.936;2024-03-17T04:30:49;10.60;99.90
74384;DHT22;62824;52.994;-3.936;2024-03-17T04:33:15;10.60;99.90
74384;DHT22;62824;52.994;-3.936;2024-03-17T04:35:42;10.50;99.90
74384;DHT22;62824;52.994;-3.936;2024-03-17T04:38:08;10.60;99.90
74384;DHT22;62824;52.994;-3.936;2024-03-17T04:40:35;10.60;99.90
74384;DHT22;62824;52.994;-3.936;2024-03-17T04:43:05;10.60;99.90
74384;DHT22;62824;52.994;-3.936;2024-03-17T04:45:31;10.50;99.90
74384;DHT22;62824;52.994;-3.936;2024-03-17T04:47:58;10.60;99.90
74384;DHT22;62824;52.994;-3.936;2024-03-17T04:50:23;10.60;99.90
74384;DHT22;62824;52.994;-3.936;2024-03-17T04:52:49;10.60;99.90
74384;DHT22;62824;52.994;-3.936;2024-03-17T04:55:16;10.60;99.90
74384;DHT22;62824;52.994;-3.936;2024-03-17T04:57:47;10.50;99.90
74384;DHT22;62824;52.994;-3.936;2024-03-17T05:00:13;10.50;99.90
74384;DHT22;62824;52.994;-3.936;2024-03-17T05:02:40;10.50;99.90
74384;DHT22;62824;52.994;-3.936;2024-03-17T05:05:06;10.50;99.90
74384;DHT22;62824;52.994;-3.936;2024-03-17T05:07:34;10.50;99.90
74384;DHT22;62824;52.994;-3.936;2024-03-17T05:10:00;10.60;99.90
74384;DHT22;62824;52.994;-3.936;2024-03-17T05:12:26;10.50;99.90
74384;DHT22;62824;52.994;-3.936;2024-03-17T05:14:52;10.60;99.90
74384;DHT22;62824;52.994;-3.936;2024-03-17T05:17:18;10.50;99.90
74384;DHT22;62824;52.994;-3.936;2024-03-17T05:19:43;10.60;99.90
74384;DHT22;62824;52.994;-3.936;2024-03-17T05:22:09;10.60;99.90
74384;DHT22;62824;52.994;-3.936;2024-03-17T05:24:36;10.60;99.90
74384;DHT22;62824;52.994;-3.936;2024-03-17T05:27:02;10.60;99.90
74384;DHT22;62824;52.994;-3.936;2024-03-17T05:29:27;10.60;99.90
74384;DHT22;62824;52.994;-3.936;2024-03-17T05:31:53;10.50;99.90
74384;DHT22;62824;52.994;-3.936;2024-03-17T05:34:19;10.60;99.90
74384;DHT22;62824;52.994;-3.936;2024-03-17T05:36:45;10.60;99.90
74384;DHT22;62824;52.994;-3.936;2024-03-17T05:39:12;10.60;99.90
74384;DHT22;62824;52.994;-3.936;2024-03-17T05:41:38;10.60;99.90
74384;DHT22;62824;52.994;-3.936;2024-03-17T05:44:04;10.60;99.90
74384;DHT22;62824;52.994;-3.936;2024-03-17T05:46:30;10.60;99.90
74384;DHT22;62824;52.994;-3.936;2024-03-17T05:48:56;10.60;99.90
74384;DHT22;62824;52.994;-3.936;2024-03-17T05:51:22;10.60;99.90
74384;DHT22;62824;52.994;-3.936;2024-03-17T05:53:48;10.60;99.90
74384;DHT22;62824;52.994;-3.936;2024-03-17T05:56:14;10.60;99.90
74384;DHT22;62824;52.994;-3.936;2024-03-17T05:58:44;10.60;99.90
74384;DHT22;62824;52.994;-3.936;2024-03-17T06:01:10;10.60;99.90
74384;DHT22;62824;52.994;-3.936;2024-03-17T06:03:37;10.50;99.90
74384;DHT22;62824;52.994;-3.936;2024-03-17T06:06:04;10.60;99.90
74384;DHT22;62824;52.994;-3.936;2024-03-17T06:08:30;10.50;99.90
74384;DHT22;62824;52.994;-3.936;2024-03-17T06:10:56;10.60;99.90
74384;DHT22;62824;52.994;-3.936;2024-03-17T06:13:26;10.50;99.90
74384;DHT22;62824;52.994;-3.936;2024-03-17T06:15:52;10.50;99.90
74384;DHT22;62824;52.994;-3.936;2024-03-17T06:18:18;10.50;99.90
74384;DHT22;62824;52.994;-3.936;2024-03-17T06:20:45;10.50;99.90
74384;DHT22;62824;52.994;-3.936;2024-03-17T06:23:12;10.50;99.90
74384;DHT22;62824;52.994;-3.936;2024-03-17T06:25:42;10.50;99.90
74384;DHT22;62824;52.994;-3.936;2024-03-17T06:28:09;10.50;99.90
74384;DHT22;62824;52.994;-3.936;2024-03-17T06:30:43;10.50;99.90
74384;DHT22;62824;52.994;-3.936;2024-03-17T06:33:13;10.50;99.90
74384;DHT22;62824;52.994;-3.936;2024-03-17T06:35:39;10.40;99.90
74384;DHT22;62824;52.994;-3.936;2024-03-17T06:38:05;10.50;99.90
74384;DHT22;62824;52.994;-3.936;2024-03-17T06:40:38;10.50;99.90
74384;DHT22;62824;52.994;-3.936;2024-03-17T06:43:04;10.50;99.90
74384;DHT22;62824;52.994;-3.936;2024-03-17T06:45:30;10.50;99.90
74384;DHT22;62824;52.994;-3.936;2024-03-17T06:47:56;10.50;99.90
74384;DHT22;62824;52.994;-3.936;2024-03-17T06:50:22;10.50;99.90
74384;DHT22;62824;52.994;-3.936;2024-03-17T06:52:48;10.50;99.90
74384;DHT22;62824;52.994;-3.936;2024-03-17T06:55:13;10.50;99.90
74384;DHT22;62824;52.994;-3.936;2024-03-17T06:57:42;10.40;99.90
74384;DHT22;62824;52.994;-3.936;2024-03-17T07:00:14;10.40;99.90
74384;DHT22;62824;52.994;-3.936;2024-03-17T07:02:41;10.40;99.90
74384;DHT22;62824;52.994;-3.936;2024-03-17T07:05:12;10.50;99.90
74384;DHT22;62824;52.994;-3.936;2024-03-17T07:07:40;10.50;99.90
74384;DHT22;62824;52.994;-3.936;2024-03-17T07:10:06;10.50;99.90
74384;DHT22;62824;52.994;-3.936;2024-03-17T07:12:34;10.60;99.90
74384;DHT22;62824;52.994;-3.936;2024-03-17T07:15:00;10.50;99.90
74384;DHT22;62824;52.994;-3.936;2024-03-17T07:17:25;10.50;99.90
74384;DHT22;62824;52.994;-3.936;2024-03-17T07:19:52;10.60;99.90
74384;DHT22;62824;52.994;-3.936;2024-03-17T07:22:18;10.60;99.90
74384;DHT22;62824;52.994;-3.936;2024-03-17T07:24:43;10.60;99.90
74384;DHT22;62824;52.994;-3.936;2024-03-17T07:27:10;10.60;99.90
74384;DHT22;62824;52.994;-3.936;2024-03-17T07:29:39;10.60;99.90
74384;DHT22;62824;52.994;-3.936;2024-03-17T07:32:05;10.60;99.90
74384;DHT22;62824;52.994;-3.936;2024-03-17T07:34:32;10.60;99.90
74384;DHT22;62824;52.994;-3.936;2024-03-17T07:36:58;10.70;99.90
74384;DHT22;62824;52.994;-3.936;2024-03-17T07:39:29;10.60;99.90
74384;DHT22;62824;52.994;-3.936;2024-03-17T07:42:01;10.70;99.90
74384;DHT22;62824;52.994;-3.936;2024-03-17T07:44:27;10.60;99.90
74384;DHT22;62824;52.994;-3.936;2024-03-17T07:46:54;10.70;99.90
74384;DHT22;62824;52.994;-3.936;2024-03-17T07:49:20;10.70;99.90
74384;DHT22;62824;52.994;-3.936;2024-03-17T07:51:46;10.70;99.90
74384;DHT22;62824;52.994;-3.936;2024-03-17T07:54:12;10.70;99.90
74384;DHT22;62824;52.994;-3.936;2024-03-17T07:56:39;10.70;99.90
74384;DHT22;62824;52.994;-3.936;2024-03-17T07:59:05;10.70;99.90
74384;DHT22;62824;52.994;-3.936;2024-03-17T08:01:37;10.70;99.90
74384;DHT22;62824;52.994;-3.936;2024-03-17T08:04:04;10.80;99.90
74384;DHT22;62824;52.994;-3.936;2024-03-17T08:06:30;10.90;99.90
74384;DHT22;62824;52.994;-3.936;2024-03-17T08:08:56;10.80;99.90
74384;DHT22;62824;52.994;-3.936;2024-03-17T08:11:22;10.80;99.90
74384;DHT22;62824;52.994;-3.936;2024-03-17T08:13:48;10.90;99.90
74384;DHT22;62824;52.994;-3.936;2024-03-17T08:16:14;10.90;99.90
74384;DHT22;62824;52.994;-3.936;2024-03-17T08:18:41;10.90;99.90
74384;DHT22;62824;52.994;-3.936;2024-03-17T08:21:07;10.90;99.90
74384;DHT22;62824;52.994;-3.936;2024-03-17T08:23:33;10.90;99.90
74384;DHT22;62824;52.994;-3.936;2024-03-17T08:26:03;10.90;99.90
74384;DHT22;62824;52.994;-3.936;2024-03-17T08:28:29;10.90;99.90
74384;DHT22;62824;52.994;-3.936;2024-03-17T08:30:59;10.90;99.90
74384;DHT22;62824;52.994;-3.936;2024-03-17T08:33:25;10.90;99.90
74384;DHT22;62824;52.994;-3.936;2024-03-17T08:36:04;10.90;99.90
74384;DHT22;62824;52.994;-3.936;2024-03-17T08:38:31;10.90;99.90
74384;DHT22;62824;52.994;-3.936;2024-03-17T08:41:02;10.90;99.90
74384;DHT22;62824;52.994;-3.936;2024-03-17T08:43:28;10.90;99.90
74384;DHT22;62824;52.994;-3.936;2024-03-17T08:45:57;10.80;99.90
74384;DHT22;62824;52.994;-3.936;2024-03-17T08:48:29;10.90;99.90
74384;DHT22;62824;52.994;-3.936;2024-03-17T08:50:56;10.90;99.90
74384;DHT22;62824;52.994;-3.936;2024-03-17T08:53:23;10.90;99.90
74384;DHT22;62824;52.994;-3.936;2024-03-17T08:55:50;10.90;99.90
74384;DHT22;62824;52.994;-3.936;2024-03-17T08:58:16;10.90;99.90
74384;DHT22;62824;52.994;-3.936;2024-03-17T09:00:43;10.90;99.90
74384;DHT22;62824;52.994;-3.936;2024-03-17T09:03:09;10.90;99.90
74384;DHT22;62824;52.994;-3.936;2024-03-17T09:05:40;10.90;99.90
74384;DHT22;62824;52.994;-3.936;2024-03-17T09:08:07;10.90;99.90
74384;DHT22;62824;52.994;-3.936;2024-03-17T09:10:40;10.90;99.90
74384;DHT22;62824;52.994;-3.936;2024-03-17T09:13:06;11.00;99.90
74384;DHT22;62824;52.994;-3.936;2024-03-17T09:15:35;10.90;99.90
74384;DHT22;62824;52.994;-3.936;2024-03-17T09:18:01;11.00;99.90
74384;DHT22;62824;52.994;-3.936;2024-03-17T09:20:28;11.00;99.90
74384;DHT22;62824;52.994;-3.936;2024-03-17T09:22:54;11.00;99.90
74384;DHT22;62824;52.994;-3.936;2024-03-17T09:25:21;11.00;99.90
74384;DHT22;62824;52.994;-3.936;2024-03-17T09:27:47;11.00;99.90
74384;DHT22;62824;52.994;-3.936;2024-03-17T09:30:13;11.10;99.90
74384;DHT22;62824;52.994;-3.936;2024-03-17T09:32:39;11.10;99.90
74384;DHT22;62824;52.994;-3.936;2024-03-17T09:35:07;11.10;99.90
74384;DHT22;62824;52.994;-3.936;2024-03-17T09:37:33;11.10;99.90
74384;DHT22;62824;52.994;-3.936;2024-03-17T09:39:58;11.10;99.90
74384;DHT22;62824;52.994;-3.936;2024-03-17T09:42:29;11.20;99.90
74384;DHT22;62824;52.994;-3.936;2024-03-17T09:44:54;11.10;99.90
74384;DHT22;62824;52.994;-3.936;2024-03-17T09:47:23;11.10;99.90
74384;DHT22;62824;52.994;-3.936;2024-03-17T09:49:50;11.10;99.90
74384;DHT22;62824;52.994;-3.936;2024-03-17T09:52:23;11.10;99.90
74384;DHT22;62824;52.994;-3.936;2024-03-17T09:57:23;11.20;99.90
74384;DHT22;62824;52.994;-3.936;2024-03-17T09:59:53;11.20;99.90
74384;DHT22;62824;52.994;-3.936;2024-03-17T10:02:19;11.20;99.90
74384;DHT22;62824;52.994;-3.936;2024-03-17T10:04:45;11.20;99.90
74384;DHT22;62824;52.994;-3.936;2024-03-17T10:07:11;11.30;99.90
74384;DHT22;62824;52.994;-3.936;2024-03-17T10:09:37;11.30;99.90
74384;DHT22;62824;52.994;-3.936;2024-03-17T10:12:04;11.30;99.90
74384;DHT22;62824;52.994;-3.936;2024-03-17T10:14:31;11.30;99.90
74384;DHT22;62824;52.994;-3.936;2024-03-17T10:16:58;11.40;99.90
74384;DHT22;62824;52.994;-3.936;2024-03-17T10:19:25;11.40;99.90
74384;DHT22;62824;52.994;-3.936;2024-03-17T10:21:58;11.40;99.90
74384;DHT22;62824;52.994;-3.936;2024-03-17T10:24:27;11.50;99.90
74384;DHT22;62824;52.994;-3.936;2024-03-17T10:26:58;11.40;99.90
74384;DHT22;62824;52.994;-3.936;2024-03-17T10:31:53;11.50;99.90
74384;DHT22;62824;52.994;-3.936;2024-03-17T10:34:20;11.50;99.90
74384;DHT22;62824;52.994;-3.936;2024-03-17T10:36:50;11.50;99.90
74384;DHT22;62824;52.994;-3.936;2024-03-17T10:39:26;11.50;99.90
74384;DHT22;62824;52.994;-3.936;2024-03-17T10:42:02;11.40;99.90
74384;DHT22;62824;52.994;-3.936;2024-03-17T10:44:29;11.40;99.90
74384;DHT22;62824;52.994;-3.936;2024-03-17T10:46:57;11.40;99.90
74384;DHT22;62824;52.994;-3.936;2024-03-17T10:49:31;11.40;99.90
74384;DHT22;62824;52.994;-3.936;2024-03-17T10:52:02;11.30;99.90
74384;DHT22;62824;52.994;-3.936;2024-03-17T10:54:30;11.30;99.90
74384;DHT22;62824;52.994;-3.936;2024-03-17T10:59:48;11.20;99.90
74384;DHT22;62824;52.994;-3.936;2024-03-17T11:02:24;11.30;99.90
74384;DHT22;62824;52.994;-3.936;2024-03-17T11:04:52;11.20;99.90
74384;DHT22;62824;52.994;-3.936;2024-03-17T11:07:19;11.10;99.90
74384;DHT22;62824;52.994;-3.936;2024-03-17T11:09:49;11.20;99.90
74384;DHT22;62824;52.994;-3.936;2024-03-17T11:12:42;11.10;99.90
74384;DHT22;62824;52.994;-3.936;2024-03-17T11:20:40;11.20;99.90
74384;DHT22;62824;52.994;-3.936;2024-03-17T11:23:07;11.20;99.90
74384;DHT22;62824;52.994;-3.936;2024-03-17T11:28:03;11.20;99.90
74384;DHT22;62824;52.994;-3.936;2024-03-17T11:41:38;11.20;99.90
74384;DHT22;62824;52.994;-3.936;2024-03-17T11:49:34;11.00;99.90
74384;DHT22;62824;52.994;-3.936;2024-03-17T11:52:04;11.00;99.90
74384;DHT22;62824;52.994;-3.936;2024-03-17T11:54:34;11.00;99.90
74384;DHT22;62824;52.994;-3.936;2024-03-17T11:57:05;10.90;99.90
74384;DHT22;62824;52.994;-3.936;2024-03-17T11:59:32;10.90;99.90
74384;DHT22;62824;52.994;-3.936;2024-03-17T12:01:58;10.90;99.90
74384;DHT22;62824;52.994;-3.936;2024-03-17T12:04:25;11.00;99.90
74384;DHT22;62824;52.994;-3.936;2024-03-17T12:06:53;11.00;99.90
74384;DHT22;62824;52.994;-3.936;2024-03-17T12:09:20;11.00;99.90
74384;DHT22;62824;52.994;-3.936;2024-03-17T12:12:03;10.90;99.90
74384;DHT22;62824;52.994;-3.936;2024-03-17T12:14:32;10.90;99.90
74384;DHT22;62824;52.994;-3.936;2024-03-17T12:17:03;10.90;99.90
74384;DHT22;62824;52.994;-3.936;2024-03-17T12:19:30;11.00;99.90
74384;DHT22;62824;52.994;-3.936;2024-03-17T12:21:57;11.10;99.90
74384;DHT22;62824;52.994;-3.936;2024-03-17T12:24:25;11.10;99.90
74384;DHT22;62824;52.994;-3.936;2024-03-17T12:26:53;11.10;99.90
74384;DHT22;62824;52.994;-3.936;2024-03-17T12:29:27;11.10;99.90
74384;DHT22;62824;52.994;-3.936;2024-03-17T12:31:59;11.20;99.90
74384;DHT22;62824;52.994;-3.936;2024-03-17T12:34:27;11.20;99.90
74384;DHT22;62824;52.994;-3.936;2024-03-17T12:36:55;11.20;99.90
74384;DHT22;62824;52.994;-3.936;2024-03-17T12:44:37;11.10;99.90
74384;DHT22;62824;52.994;-3.936;2024-03-17T12:47:08;11.10;99.90
74384;DHT22;62824;52.994;-3.936;2024-03-17T12:49:46;11.00;99.90
74384;DHT22;62824;52.994;-3.936;2024-03-17T12:52:20;11.00;99.90
74384;DHT22;62824;52.994;-3.936;2024-03-17T12:57:50;10.90;99.90
74384;DHT22;62824;52.994;-3.936;2024-03-17T13:00:35;10.80;99.90
74384;DHT22;62824;52.994;-3.936;2024-03-17T13:03:05;10.80;99.90
74384;DHT22;62824;52.994;-3.936;2024-03-17T13:05:32;10.80;99.90
74384;DHT22;62824;52.994;-3.936;2024-03-17T13:07:59;10.80;99.90
74384;DHT22;62824;52.994;-3.936;2024-03-17T13:10:26;10.70;99.90
74384;DHT22;62824;52.994;-3.936;2024-03-17T13:15:26;10.60;99.90
74384;DHT22;62824;52.994;-3.936;2024-03-17T13:17:52;10.70;99.90
74384;DHT22;62824;52.994;-3.936;2024-03-17T13:20:17;10.70;99.90
74384;DHT22;62824;52.994;-3.936;2024-03-17T13:22:46;10.70;99.90
74384;DHT22;62824;52.994;-3.936;2024-03-17T13:25:16;10.70;99.90
74384;DHT22;62824;52.994;-3.936;2024-03-17T13:27:45;10.70;99.90
74384;DHT22;62824;52.994;-3.936;2024-03-17T13:30:12;10.70;99.90
74384;DHT22;62824;52.994;-3.936;2024-03-17T13:32:39;10.70;99.90
74384;DHT22;62824;52.994;-3.936;2024-03-17T13:35:06;10.70;99.90
74384;DHT22;62824;52.994;-3.936;2024-03-17T13:37:34;10.70;99.90
74384;DHT22;62824;52.994;-3.936;2024-03-17T13:40:01;10.60;99.90
74384;DHT22;62824;52.994;-3.936;2024-03-17T13:42:28;10.60;99.90
74384;DHT22;62824;52.994;-3.936;2024-03-17T13:44:54;10.50;99.90
74384;DHT22;62824;52.994;-3.936;2024-03-17T13:47:20;10.50;99.90
74384;DHT22;62824;52.994;-3.936;2024-03-17T13:49:46;10.40;99.90
74384;DHT22;62824;52.994;-3.936;2024-03-17T13:52:12;10.50;99.90
74384;DHT22;62824;52.994;-3.936;2024-03-17T13:54:38;10.50;99.90
74384;DHT22;62824;52.994;-3.936;2024-03-17T13:57:04;10.50;99.90
74384;DHT22;62824;52.994;-3.936;2024-03-17T13:59:30;10.50;99.90
74384;DHT22;62824;52.994;-3.936;2024-03-17T14:01:57;10.40;99.90
74384;DHT22;62824;52.994;-3.936;2024-03-17T14:04:23;10.40;99.90
74384;DHT22;62824;52.994;-3.936;2024-03-17T14:06:49;10.40;99.90
74384;DHT22;62824;52.994;-3.936;2024-03-17T14:09:16;10.30;99.90
74384;DHT22;62824;52.994;-3.936;2024-03-17T14:11:44;10.20;99.90
74384;DHT22;62824;52.994;-3.936;2024-03-17T14:14:12;10.10;99.90
74384;DHT22;62824;52.994;-3.936;2024-03-17T14:16:38;10.00;99.90
74384;DHT22;62824;52.994;-3.936;2024-03-17T14:19:05;10.10;99.90
74384;DHT22;62824;52.994;-3.936;2024-03-17T14:21:31;10.20;99.90
74384;DHT22;62824;52.994;-3.936;2024-03-17T14:23:57;10.20;99.90
74384;DHT22;62824;52.994;-3.936;2024-03-17T14:26:24;10.30;99.90
74384;DHT22;62824;52.994;-3.936;2024-03-17T14:28:50;10.30;99.90
74384;DHT22;62824;52.994;-3.936;2024-03-17T14:31:17;10.30;99.90
74384;DHT22;62824;52.994;-3.936;2024-03-17T14:33:43;10.40;99.90
74384;DHT22;62824;52.994;-3.936;2024-03-17T14:36:09;10.40;99.90
74384;DHT22;62824;52.994;-3.936;2024-03-17T14:38:35;10.40;99.90
74384;DHT22;62824;52.994;-3.936;2024-03-17T14:41:01;10.50;99.90
74384;DHT22;62824;52.994;-3.936;2024-03-17T14:43:30;10.50;99.90
74384;DHT22;62824;52.994;-3.936;2024-03-17T14:45:56;10.50;99.90
74384;DHT22;62824;52.994;-3.936;2024-03-17T14:48:21;10.40;99.90
74384;DHT22;62824;52.994;-3.936;2024-03-17T14:50:47;10.40;99.90
74384;DHT22;62824;52.994;-3.936;2024-03-17T14:53:13;10.50;99.90
74384;DHT22;62824;52.994;-3.936;2024-03-17T14:55:39;10.40;99.90
74384;DHT22;62824;52.994;-3.936;2024-03-17T14:58:04;10.40;99.90
74384;DHT22;62824;52.994;-3.936;2024-03-17T15:00:32;10.50;99.90
74384;DHT22;62824;52.994;-3.936;2024-03-17T15:02:58;10.40;99.90
74384;DHT22;62824;52.994;-3.936;2024-03-17T15:05:23;10.40;99.90
74384;DHT22;62824;52.994;-3.936;2024-03-17T15:07:51;10.40;99.90
74384;DHT22;62824;52.994;-3.936;2024-03-17T15:10:17;10.50;99.90
74384;DHT22;62824;52.994;-3.936;2024-03-17T15:12:50;10.50;99.90
74384;DHT22;62824;52.994;-3.936;2024-03-17T15:15:16;10.50;99.90
74384;DHT22;62824;52.994;-3.936;2024-03-17T15:17:42;10.50;99.90
74384;DHT22;62824;52.994;-3.936;2024-03-17T15:20:10;10.50;99.90
74384;DHT22;62824;52.994;-3.936;2024-03-17T15:22:47;10.60;99.90
74384;DHT22;62824;52.994;-3.936;2024-03-17T15:25:15;10.60;99.90
74384;DHT22;62824;52.994;-3.936;2024-03-17T15:27:42;10.50;99.90
74384;DHT22;62824;52.994;-3.936;2024-03-17T15:30:11;10.60;99.90
74384;DHT22;62824;52.994;-3.936;2024-03-17T15:32:36;10.60;99.90
74384;DHT22;62824;52.994;-3.936;2024-03-17T15:35:03;10.60;99.90
74384;DHT22;62824;52.994;-3.936;2024-03-17T15:37:28;10.60;99.90
74384;DHT22;62824;52.994;-3.936;2024-03-17T15:39:56;10.60;99.90
74384;DHT22;62824;52.994;-3.936;2024-03-17T15:42:22;10.60;99.90
74384;DHT22;62824;52.994;-3.936;2024-03-17T15:44:48;10.60;99.90
74384;DHT22;62824;52.994;-3.936;2024-03-17T15:47:14;10.60;99.90
74384;DHT22;62824;52.994;-3.936;2024-03-17T15:49:39;10.60;99.90
74384;DHT22;62824;52.994;-3.936;2024-03-17T15:52:05;10.60;99.90
74384;DHT22;62824;52.994;-3.936;2024-03-17T15:54:31;10.60;99.90
74384;DHT22;62824;52.994;-3.936;2024-03-17T15:56:57;10.60;99.90
74384;DHT22;62824;52.994;-3.936;2024-03-17T15:59:23;10.60;99.90